createdAt,value
2023-07-01T00:00:05.930Z,1007.9178852638631
2023-07-01T00:03:53.781Z,1007.8861568346193
2023-07-01T00:07:31.145Z,1007.8315972773004
2023-07-01T00:11:17.040Z,1007.7473363603638
2023-07-01T00:14:57.315Z,1007.6720823089915
2023-07-01T00:18:49.746Z,1007.6192864357477
2023-07-01T00:23:01.871Z,1007.6298991038552
2023-07-01T00:26:41.523Z,1007.6040817313775
2023-07-01T00:30:17.672Z,1007.5618012541868
2023-07-01T00:33:54.171Z,1007.523536221994
2023-07-01T00:37:36.068Z,1007.4776746835299
2023-07-01T00:41:20.224Z,1007.4203472644547
2023-07-01T00:44:57.274Z,1007.3607359045186
2023-07-01T00:48:31.652Z,1007.3050689274131
2023-07-01T00:52:06.553Z,1007.2817147339625
2023-07-01T00:55:48.468Z,1007.2374116794737
2023-07-01T00:59:19.548Z,1007.1786294842542
2023-07-01T01:02:50.893Z,1007.115869381715
2023-07-01T01:06:21.052Z,1007.0711616966544
2023-07-01T01:09:49.447Z,1007.0169103477305
2023-07-01T01:16:05.291Z,1006.932186077904
2023-07-01T01:19:40.811Z,1006.8754487964225
2023-07-01T01:23:16.568Z,1006.8515946586423
2023-07-01T01:27:09.030Z,1006.7979670119644
2023-07-01T01:30:44.889Z,1006.7829148316767
2023-07-01T01:34:19.834Z,1006.7451455212926
2023-07-01T01:37:54.242Z,1006.6944555786387
2023-07-01T01:41:26.760Z,1006.6552117901687
2023-07-01T01:45:01.475Z,1006.6273378657975
2023-07-01T01:48:35.109Z,1006.5697770721811
2023-07-01T01:52:10.097Z,1006.5677325615287
2023-07-01T01:55:45.718Z,1006.5669933641042
2023-07-01T01:59:57.815Z,1006.5476104074045
2023-07-01T02:03:26.370Z,1006.4786006632806
2023-07-01T02:07:08.736Z,1006.4368432820402
2023-07-01T02:10:42.060Z,1006.3893342907722
2023-07-01T02:14:19.129Z,1006.3470216024064
2023-07-01T02:17:53.251Z,1006.3113256080753
2023-07-01T02:21:46.155Z,1006.2284881793611
2023-07-01T02:25:31.595Z,1006.1771220312303
2023-07-01T02:29:01.560Z,1006.1076075955157
2023-07-01T02:32:39.671Z,1006.0633786826954
2023-07-01T02:39:06.066Z,1005.9878868128369
2023-07-01T02:42:35.488Z,1005.9322845408648
2023-07-01T02:47:07.039Z,1005.8688365740549
2023-07-01T02:50:46.815Z,1005.8174416587074
2023-07-01T02:54:23.785Z,1005.777082878722
2023-07-01T02:57:52.381Z,1005.7495530857794
2023-07-01T03:01:34.708Z,1005.7160300156895
2023-07-01T03:05:11.908Z,1005.683329555758
2023-07-01T03:08:47.119Z,1005.6140158792376
2023-07-01T03:12:17.378Z,1005.5992306436368
2023-07-01T03:15:46.131Z,1005.5446180841354
2023-07-01T03:19:13.851Z,1005.4857747380009
2023-07-01T03:22:46.301Z,1005.4323331221126
2023-07-01T03:26:15.392Z,1005.4228991187906
2023-07-01T03:30:13.794Z,1005.4063953584243
2023-07-01T03:33:49.831Z,1005.3754931756773
2023-07-01T03:37:21.101Z,1005.3039675071864
2023-07-01T03:43:32.344Z,1005.2210472163388
2023-07-01T03:47:08.737Z,1005.2063664529977
2023-07-01T03:53:37.073Z,1005.1489658234492
2023-07-01T03:57:04.529Z,1005.0987210434988
2023-07-01T04:00:36.917Z,1005.0721709063281
2023-07-01T04:04:06.398Z,1005.0388841806689
2023-07-01T04:07:41.951Z,1005.0226161188517
2023-07-01T04:12:06.028Z,1004.9842987562768
2023-07-01T04:15:32.688Z,1005.0233967183631
2023-07-01T04:19:04.752Z,1005.0030648675445
2023-07-01T04:22:40.499Z,1004.949613977736
2023-07-01T04:26:15.547Z,1004.9451414085376
2023-07-01T04:30:53.075Z,1004.9301278121211
2023-07-01T04:34:27.777Z,1004.8925941005734
2023-07-01T04:38:03.429Z,1004.8456939713336
2023-07-01T04:41:38.720Z,1004.6797287845857
2023-07-01T04:45:13.433Z,1004.5906587639824
2023-07-01T04:49:25.536Z,1004.5729594234183
2023-07-01T04:53:00.376Z,1004.5237782615715
2023-07-01T04:56:35.019Z,1004.5365476531929
2023-07-01T05:01:46.786Z,1004.4469285241255
2023-07-01T05:05:21.932Z,1004.405797564242
2023-07-01T05:08:57.697Z,1004.341345619899
2023-07-01T05:12:33.501Z,1004.2843170542238
2023-07-01T05:16:12.867Z,1004.2422238781338
2023-07-01T05:19:47.318Z,1004.2331981740081
2023-07-01T05:23:16.923Z,1004.2135460963574
2023-07-01T05:35:05.851Z,1004.1321410214241
2023-07-01T05:38:42.513Z,1004.1353015351484
2023-07-01T05:42:17.852Z,1004.1304163576937
2023-07-01T05:45:54.851Z,1004.0745976636377
2023-07-01T05:49:31.748Z,1004.0057733940133
2023-07-01T05:53:07.319Z,1003.9908126316917
2023-07-01T05:56:41.236Z,1004.0086103201538
2023-07-01T06:00:21.278Z,1003.9374234352514
2023-07-01T06:03:56.281Z,1003.8680077774766
2023-07-01T06:07:31.400Z,1003.7903231702863
2023-07-01T06:11:09.082Z,1003.726825904881
2023-07-01T06:15:00.893Z,1003.7065251253
2023-07-01T06:19:30.655Z,1003.7219905988665
2023-07-01T06:26:47.200Z,1003.7580294314931
2023-07-01T06:30:38.191Z,1003.7796171848743
2023-07-01T06:34:49.236Z,1003.7660605612003
2023-07-01T06:39:00.855Z,1003.720826672305
2023-07-01T06:42:45.776Z,1003.7094817720827
2023-07-01T06:47:01.517Z,1003.6918752329825
2023-07-01T06:56:48.954Z,1003.5637694798022
2023-07-01T07:00:35.037Z,1003.5530001432633
2023-07-01T07:04:24.534Z,1003.5286025865647
2023-07-01T07:08:07.766Z,1003.5046216660205
2023-07-01T07:11:44.479Z,1003.4861169595958
2023-07-01T07:15:19.908Z,1003.475319637611
2023-07-01T07:18:56.852Z,1003.4858573832367
2023-07-01T07:22:32.530Z,1003.461937119512
2023-07-01T07:26:10.082Z,1003.4291885609504
2023-07-01T07:29:46.181Z,1003.388070820342
2023-07-01T07:33:39.118Z,1003.3549965436841
2023-07-01T07:37:23.997Z,1003.2960890270807
2023-07-01T07:44:45.029Z,1003.3388556139557
2023-07-01T07:48:16.614Z,1003.3755656620697
2023-07-01T07:54:34.253Z,1003.4042440676271
2023-07-01T07:59:09.428Z,1003.4610439171953
2023-07-01T08:02:56.803Z,1003.4583612545641
2023-07-01T08:06:42.971Z,1003.4341239254625
2023-07-01T08:10:53.957Z,1003.4495613670149
2023-07-01T08:14:45.638Z,1003.4606919836336
2023-07-01T08:18:17.936Z,1003.4549004135438
2023-07-01T08:25:14.935Z,1003.3997627125219
2023-07-01T08:28:56.868Z,1003.3775344741429
2023-07-01T08:32:36.020Z,1003.3594998553967
2023-07-01T08:36:14.125Z,1003.3627845417508
2023-07-01T08:39:54.027Z,1003.3287095067344
2023-07-01T08:43:35.308Z,1003.3141747826352
2023-07-01T08:52:24.501Z,1003.2499005529593
2023-07-01T08:57:59.881Z,1003.263072251729
2023-07-01T09:02:35.883Z,1003.2885004635957
2023-07-01T09:06:12.375Z,1003.2886815733743
2023-07-01T09:09:54.569Z,1003.3173885355036
2023-07-01T09:13:33.382Z,1003.3269228222478
2023-07-01T09:17:12.386Z,1003.3058806845214
2023-07-01T09:20:51.455Z,1003.2629523657229
2023-07-01T09:24:30.889Z,1003.2535056068342
2023-07-01T09:28:08.356Z,1003.2458914348553
2023-07-01T09:31:46.519Z,1003.2192463369713
2023-07-01T09:45:09.561Z,1003.1199374284998
2023-07-01T09:48:46.972Z,1003.1106270750078
2023-07-01T09:53:51.826Z,1003.0861388241725
2023-07-01T09:57:32.987Z,1003.0801805387665
2023-07-01T10:01:09.787Z,1003.1106138010085
2023-07-01T10:04:46.297Z,1003.0928109416196
2023-07-01T10:08:22.525Z,1003.0815532098534
2023-07-01T10:11:59.549Z,1003.0605117698353
2023-07-01T10:15:36.201Z,1003.0516640107951
2023-07-01T10:19:12.453Z,1003.04001725298
2023-07-01T10:22:48.790Z,1003.0181227167557
2023-07-01T10:26:24.706Z,1002.9849513534284
2023-07-01T10:35:18.161Z,1002.9679770342944
2023-07-01T10:38:54.634Z,1002.9639333440247
2023-07-01T10:42:31.851Z,1002.9632797434765
2023-07-01T10:46:07.496Z,1002.9486319693251
2023-07-01T10:49:43.565Z,1002.9267811942932
2023-07-01T10:53:18.964Z,1002.8981666203421
2023-07-01T10:56:54.971Z,1002.9208878249689
2023-07-01T11:00:31.144Z,1002.8888314122323
2023-07-01T11:08:47.195Z,1002.8195544502659
2023-07-01T11:12:22.789Z,1002.8342401554983
2023-07-01T11:23:20.113Z,1002.8122612484399
2023-07-01T11:26:56.474Z,1002.8200313796402
2023-07-01T11:30:32.527Z,1002.8269741665445
2023-07-01T11:34:07.690Z,1002.7802490190188
2023-07-01T11:37:43.613Z,1002.769531896565
2023-07-01T11:41:19.098Z,1002.7915284420354
2023-07-01T11:44:55.656Z,1002.7929496781944
2023-07-01T11:48:32.288Z,1002.8001934348105
2023-07-01T11:52:09.977Z,1002.7630166763412
2023-07-01T11:56:40.876Z,1002.7591898030861
2023-07-01T12:00:16.731Z,1002.7661367366468
2023-07-01T12:03:52.842Z,1002.7772589523667
2023-07-01T12:14:02.370Z,1002.7825883406434
2023-07-01T12:17:41.750Z,1002.7780725327185
2023-07-01T12:21:17.075Z,1002.741385959817
2023-07-01T12:25:25.231Z,1002.7276289624768
2023-07-01T12:29:03.357Z,1002.6927978136217
2023-07-01T12:32:38.867Z,1002.6838805407347
2023-07-01T12:36:13.759Z,1002.713007897063
2023-07-01T12:43:09.348Z,1002.7049933635174
2023-07-01T12:47:57.941Z,1002.6839726043486
2023-07-01T12:52:21.705Z,1002.6525115737289
2023-07-01T12:55:58.771Z,1002.6302179715392
2023-07-01T12:59:34.798Z,1002.623640637202
2023-07-01T13:03:10.975Z,1002.6247447561516
2023-07-01T13:06:47.085Z,1002.5646694515139
2023-07-01T13:10:22.788Z,1002.5536622383609
2023-07-01T13:13:58.647Z,1002.5266373110342
2023-07-01T13:18:22.850Z,1002.4847148763529
2023-07-01T13:22:16.667Z,1002.4817674996913
2023-07-01T13:25:52.260Z,1002.4855120571103
2023-07-01T13:29:28.274Z,1002.4700405641745
2023-07-01T13:33:04.301Z,1002.4540922863351
2023-07-01T13:36:39.870Z,1002.4722576078567
2023-07-01T13:40:15.598Z,1002.4839029006506
2023-07-01T13:43:51.773Z,1002.4820069230983
2023-07-01T13:47:27.413Z,1002.474214826623
2023-07-01T13:51:03.419Z,1002.4234677291234
2023-07-01T13:57:07.677Z,1002.4123201397905
2023-07-01T14:01:12.960Z,1002.348182795142
2023-07-01T14:04:48.596Z,1002.3570550533829
2023-07-01T14:08:23.045Z,1002.3282462654668
2023-07-01T14:11:58.301Z,1002.3320330993257
2023-07-01T14:15:33.636Z,1002.3351896682533
2023-07-01T14:19:07.855Z,1002.3134078576279
2023-07-01T14:22:42.486Z,1002.3014310697566
2023-07-01T14:26:16.844Z,1002.2893530409408
2023-07-01T14:29:52.998Z,1002.2679984857598
2023-07-01T14:33:28.837Z,1002.2577164718186
2023-07-01T14:37:05.395Z,1002.291405238745
2023-07-01T14:41:37.880Z,1002.3009053246936
2023-07-01T14:45:11.305Z,1002.2884071161013
2023-07-01T14:48:45.596Z,1002.2702816715763
2023-07-01T14:54:58.250Z,1002.2756437886416
2023-07-01T14:58:31.693Z,1002.2420921520937
2023-07-01T15:02:05.046Z,1002.253111192713
2023-07-01T15:05:38.342Z,1002.2298935169501
2023-07-01T15:09:17.280Z,1002.2423016891839
2023-07-01T15:12:51.621Z,1002.2727572515622
2023-07-01T15:16:26.468Z,1002.249216815303
2023-07-01T15:20:01.218Z,1002.2450264561467
2023-07-01T15:34:49.611Z,1002.1729520619222
2023-07-01T15:38:23.593Z,1002.1280022378835
2023-07-01T15:44:38.900Z,1002.0700427505906
2023-07-01T15:48:13.617Z,1002.0806801609299
2023-07-01T15:51:49.519Z,1002.0808982354897
2023-07-01T16:05:05.237Z,1002.1006927431281
2023-07-01T16:08:41.235Z,1002.0903275399207
2023-07-01T16:12:16.749Z,1002.0707392213541
2023-07-01T16:15:52.601Z,1002.1153917281854
2023-07-01T16:19:27.969Z,1002.0811634329158
2023-07-01T16:24:42.604Z,1002.0537076754233
2023-07-01T16:28:17.386Z,1002.0715417396378
2023-07-01T16:31:53.709Z,1002.0758023056055
2023-07-01T16:37:42.323Z,1002.0634501117337
2023-07-01T16:44:28.940Z,1002.0574277923345
2023-07-01T16:49:23.306Z,1002.0161521328848
2023-07-01T16:54:13.500Z,1002.0787582364427
2023-07-01T17:02:09.910Z,1002.107918875414
2023-07-01T17:06:57.525Z,1002.1736092814103
2023-07-01T17:11:50.467Z,1002.2043745651831
2023-07-01T17:18:39.763Z,1002.30627846803
2023-07-01T17:23:26.887Z,1002.2497824104815
2023-07-01T17:28:11.730Z,1002.289029783764
2023-07-01T17:32:50.976Z,1002.3708923814705
2023-07-01T17:37:44.677Z,1002.3902572578461
2023-07-01T17:42:19.943Z,1002.4566931271959
2023-07-01T17:47:03.026Z,1002.5317661688765
2023-07-01T17:51:36.280Z,1002.6131800611503
2023-07-01T17:56:13.494Z,1002.6934750488465
2023-07-01T18:00:52.591Z,1002.7538381408713
2023-07-01T18:07:54.958Z,1002.8040615404693
2023-07-01T18:12:33.175Z,1002.8329448080667
2023-07-01T18:16:53.746Z,1002.8439915836931
2023-07-01T18:21:30.390Z,1002.9048830827504
2023-07-01T18:25:49.419Z,1002.9539736732852
2023-07-01T18:31:38.967Z,1002.9633524571977
2023-07-01T18:36:39.672Z,1002.9939774648258
2023-07-01T18:40:53.692Z,1003.0426013431888
2023-07-01T18:45:00.501Z,1003.0461729884843
2023-07-01T18:48:46.919Z,1003.0879063184077
2023-07-01T18:53:06.601Z,1003.1461297282947
2023-07-01T18:56:44.600Z,1003.1521945326451
2023-07-01T19:00:21.153Z,1003.2014293387601
2023-07-01T19:03:57.620Z,1003.2270052162713
2023-07-01T19:07:34.069Z,1003.2821249927657
2023-07-01T19:11:10.730Z,1003.3038428132417
2023-07-01T19:24:12.318Z,1003.4460847626596
2023-07-01T19:27:48.410Z,1003.5113778510164
2023-07-01T19:31:24.019Z,1003.5601931426353
2023-07-01T19:35:00.109Z,1003.6290888755061
2023-07-01T19:38:36.950Z,1003.6800718334309
2023-07-01T19:42:12.953Z,1003.7207549062148
2023-07-01T19:46:32.145Z,1003.7410988213995
2023-07-01T19:50:08.206Z,1003.7851141216431
2023-07-01T19:53:56.006Z,1003.7914470477655
2023-07-01T19:57:37.610Z,1003.8650110775342
2023-07-01T20:01:14.603Z,1003.9803771070725
2023-07-01T20:05:23.836Z,1004.0466791823451
2023-07-01T20:08:59.879Z,1004.0909532061885
2023-07-01T20:12:36.697Z,1004.0749054390504
2023-07-01T20:16:11.961Z,1004.0694534859941
2023-07-01T20:23:55.773Z,1004.0151773805067
2023-07-01T20:28:40.969Z,1003.9927669447854
2023-07-01T20:35:03.912Z,1004.0212380505966
2023-07-01T20:38:39.823Z,1004.1180791409524
2023-07-01T20:42:15.228Z,1004.1811272755078
2023-07-01T20:45:50.748Z,1004.2089665440527
2023-07-01T20:49:25.735Z,1004.3087938179751
2023-07-01T20:53:01.422Z,1004.3151714281652
2023-07-01T21:00:08.912Z,1004.4147244398436
2023-07-01T21:03:44.285Z,1004.4188752543691
2023-07-01T21:07:19.412Z,1004.4794454298317
2023-07-01T21:10:55.352Z,1004.5031886667317
2023-07-01T21:15:22.751Z,1004.5305192345279
2023-07-01T21:24:05.109Z,1004.547107433551
2023-07-01T21:27:41.042Z,1004.5810710196345
2023-07-01T21:31:16.943Z,1004.5995474590729
2023-07-01T21:34:53.628Z,1004.5899290970328
2023-07-01T21:39:55.535Z,1004.577572620037
2023-07-01T21:44:11.804Z,1004.6051496942033
2023-07-01T21:48:54.638Z,1004.6334798988222
2023-07-01T21:54:00.554Z,1004.6717218349603
2023-07-01T21:59:20.381Z,1004.7024400495939
2023-07-01T22:03:05.551Z,1004.7281905873268
2023-07-01T22:08:08.713Z,1004.7083088670904
2023-07-01T22:11:47.767Z,1004.705678638809
2023-07-01T22:15:23.394Z,1004.7402839230265
2023-07-01T22:19:18.122Z,1004.7719442493436
2023-07-01T22:22:54.637Z,1004.7895400280701
2023-07-01T22:27:51.011Z,1004.7895988719431
2023-07-01T22:31:25.895Z,1004.7496607682758
2023-07-01T22:35:01.446Z,1004.7436991115351
2023-07-01T22:38:37.637Z,1004.7479999412826
2023-07-01T22:42:13.298Z,1004.7876120685892
2023-07-01T22:45:49.225Z,1004.8213920622784
2023-07-01T22:49:24.410Z,1004.8534066114413
2023-07-01T22:52:59.939Z,1004.8469972407595
2023-07-01T22:58:52.335Z,1004.8482619924928
2023-07-01T23:03:14.957Z,1004.8669829391815
2023-07-01T23:07:31.928Z,1004.904411931368
2023-07-01T23:11:07.905Z,1004.9172973818511
2023-07-01T23:14:46.853Z,1004.9169608825215
2023-07-01T23:18:22.796Z,1004.9388290292317
2023-07-01T23:21:59.154Z,1004.9375905552879
2023-07-01T23:25:34.755Z,1004.8818692258583
2023-07-01T23:29:10.160Z,1004.8917688113639
2023-07-01T23:34:20.836Z,1004.8727878567871
2023-07-01T23:37:57.135Z,1004.8386895259163
2023-07-01T23:42:45.276Z,1004.7849028563969
2023-07-01T23:46:20.003Z,1004.7244528631123
2023-07-01T23:49:56.011Z,1004.6318630747953
2023-07-01T23:55:41.295Z,1004.6918846323464
2023-07-01T23:59:15.650Z,1004.6633862211959
